OK76 weather

Channel 8 Heliport
Tulsa, Oklahoma, United States

Public forecast

Using degrees Fahrenheit for public forecast. Weather courtesy of forecast.io.

METAR (pilot weather report)

Closest report is Richard Lloyd Jones Jr Airport, 5.0 nm (9.3 km) SSE. Retrieved 2019/04/24 04:53 UTC (34 minutes ago):

KRVS 240453Z AUTO VRB03KT 10SM OVC011 14/12 A2998 RMK AO2 SLP161 T01440117

TAF (pilot weather forecast)

Forecast is more than 12 hours old.

Closest forecast is Richard Lloyd Jones Jr Airport, 5.0 nm (9.3 km) SSE. Retrieved 2019/04/23 00:22 UTC (1 day ago):

TAF KRVS 232320Z 2400/2424 34009KT P6SM VCSH FEW014 OVC100 FM240200 32007KT P6SM OVC015 FM240900 34004KT 5SM BR OVC004 TEMPO 2409/2413 2SM BR OVC001 FM241500 33005KT P6SM OVC015 FM241800 33003KT P6SM OVC025 FM242100 32004KT P6SM BKN050